Time;durP1;ratioP1;P1;durP2;ratioP2;P2;SDS_P1;SDS_P2;PMS_P1;PMS_P2;Temp;Humidity;BMP_temperature;BMP_pressure;BME280_temperature;BME280_humidity;BME280_pressure;Samples;Min_cycle;Max_cycle;Signal;HPM_P1;HPM_P2
2022/05/17 00:00:43;;;;;;;7.57;2.70;;;;;;;15.04;96.34;102067.91;7376596;19;20014;-72
2022/05/17 00:03:13;;;;;;;5.70;2.75;;;;;;;15.06;95.92;102066.19;7372480;19;20475;-72
2022/05/17 00:05:43;;;;;;;7.53;3.00;;;;;;;15.03;96.10;102066.13;7373569;19;20450;-73
2022/05/17 00:08:15;;;;;;;6.15;2.65;;;;;;;15.03;95.76;102071.41;7373439;19;20313;-72
2022/05/17 00:10:47;;;;;;;8.68;2.67;;;;;;;15.02;95.60;102065.25;7374751;19;20055;-73
2022/05/17 00:13:19;;;;;;;6.55;2.80;;;;;;;15.01;95.59;102062.59;7375303;19;20015;-77
2022/05/17 00:15:52;;;;;;;8.05;3.97;;;;;;;14.98;95.65;102065.19;7377829;19;20371;-78
2022/05/17 00:18:23;;;;;;;5.45;2.50;;;;;;;14.92;95.92;102065.97;7375959;19;20015;-78
2022/05/17 00:20:54;;;;;;;6.25;2.80;;;;;;;14.88;96.11;102068.56;7380724;19;20108;-72
2022/05/17 00:23:26;;;;;;;9.68;2.53;;;;;;;14.86;96.50;102080.84;7378536;19;20499;-73
2022/05/17 00:25:57;;;;;;;10.07;3.10;;;;;;;14.83;96.72;102076.41;7379750;19;20053;-73
2022/05/17 00:28:33;;;;;;;7.38;3.67;;;;;;;14.81;96.89;102066.69;7375230;19;20996;-72
2022/05/17 00:31:06;;;;;;;6.32;2.80;;;;;;;14.77;97.17;102067.50;7377139;19;20040;-72
2022/05/17 00:33:36;;;;;;;8.90;3.17;;;;;;;14.77;97.39;102078.06;7371752;19;20390;-72
2022/05/17 00:36:08;;;;;;;7.57;2.93;;;;;;;14.71;97.03;102071.81;7369813;19;20003;-72
2022/05/17 00:38:38;;;;;;;7.25;3.20;;;;;;;14.75;97.71;102069.22;7229199;19;2855522;-73
2022/05/17 00:41:08;;;;;;;6.88;3.03;;;;;;;14.72;97.27;102067.44;7378837;19;20014;-72
2022/05/17 00:46:33;;;;;;;7.75;2.90;;;;;;;14.72;97.20;102078.88;7375403;19;20002;-72
2022/05/17 00:49:04;;;;;;;7.78;3.95;;;;;;;14.71;97.33;102081.50;7381262;19;20490;-72
2022/05/17 00:51:34;;;;;;;9.23;3.35;;;;;;;14.69;97.47;102080.59;7378190;19;20007;-72
2022/05/17 00:54:10;;;;;;;8.98;3.22;;;;;;;14.67;97.94;102077.91;7373685;19;20636;-73
2022/05/17 00:56:45;;;;;;;6.90;3.58;;;;;;;14.66;97.61;102084.06;7375218;19;20089;-72
2022/05/17 00:59:18;;;;;;;8.25;3.10;;;;;;;14.64;98.09;102088.44;7376372;19;20016;-73
2022/05/17 01:01:48;;;;;;;7.07;3.60;;;;;;;14.59;97.87;102082.19;7375905;19;20006;-73
2022/05/17 01:04:22;;;;;;;6.88;3.13;;;;;;;14.58;98.09;102083.03;7376830;19;20015;-73
2022/05/17 01:06:59;;;;;;;9.02;3.80;;;;;;;14.56;98.38;102087.41;7377510;19;20135;-72
2022/05/17 01:09:29;;;;;;;8.00;3.65;;;;;;;14.50;98.27;102078.53;7374211;19;20010;-72
2022/05/17 01:11:59;;;;;;;13.18;3.80;;;;;;;14.50;98.73;102086.44;7377211;19;20033;-72
2022/05/17 01:17:14;;;;;;;9.07;3.40;;;;;;;14.45;98.60;102089.00;7374718;19;20046;-73
2022/05/17 01:19:45;;;;;;;8.43;3.58;;;;;;;14.41;98.84;102089.78;7378329;19;20074;-72
2022/05/17 01:22:18;;;;;;;8.13;2.97;;;;;;;14.38;98.75;102087.09;7375808;19;20002;-73
2022/05/17 01:24:49;;;;;;;6.57;3.40;;;;;;;14.32;98.93;102081.72;7373370;19;20014;-71
2022/05/17 01:27:25;;;;;;;7.63;3.38;;;;;;;14.31;99.63;102080.81;7375429;19;20095;-72
2022/05/17 01:29:56;;;;;;;8.48;3.78;;;;;;;14.27;99.59;102083.38;7377215;19;20381;-72
2022/05/17 01:32:26;;;;;;;10.30;3.58;;;;;;;14.25;99.49;102095.66;7372678;19;20386;-72
2022/05/17 01:34:56;;;;;;;7.63;4.28;;;;;;;14.22;100.00;102095.59;7373386;19;20021;-73
2022/05/17 01:37:28;;;;;;;7.68;3.40;;;;;;;14.15;99.25;102088.44;7374074;19;20014;-72
2022/05/17 01:39:59;;;;;;;9.30;3.58;;;;;;;14.09;100.00;102097.13;7375475;19;20432;-73
2022/05/17 01:42:29;;;;;;;8.95;3.55;;;;;;;14.04;100.00;102091.75;7374085;19;20010;-73
2022/05/17 01:44:59;;;;;;;7.25;3.33;;;;;;;14.04;100.00;102096.16;7376223;19;20010;-72
2022/05/17 01:47:31;;;;;;;8.68;3.40;;;;;;;13.97;100.00;102081.94;7376533;19;20013;-72
2022/05/17 01:50:01;;;;;;;9.18;3.60;;;;;;;13.93;100.00;102082.75;7373918;19;20060;-73
2022/05/17 01:52:34;;;;;;;8.98;3.38;;;;;;;13.89;100.00;102074.75;7369089;19;20102;-72
2022/05/17 01:55:05;;;;;;;6.57;3.20;;;;;;;13.83;100.00;102079.91;7374193;19;20012;-73
2022/05/17 01:57:35;;;;;;;9.18;3.60;;;;;;;13.78;100.00;102074.53;7374709;19;20041;-72
2022/05/17 02:00:07;;;;;;;7.13;3.75;;;;;;;13.73;100.00;102079.72;7374372;19;20003;-72
2022/05/17 02:02:36;;;;;;;7.50;3.15;;;;;;;13.70;100.00;102078.78;7376097;19;20376;-73
2022/05/17 02:05:08;;;;;;;7.53;3.42;;;;;;;13.67;100.00;102083.97;7372183;19;20127;-73
2022/05/17 02:07:41;;;;;;;7.95;3.65;;;;;;;13.60;100.00;102079.44;7373324;19;20010;-73
2022/05/17 02:10:12;;;;;;;6.37;3.37;;;;;;;13.61;100.00;102091.75;7375823;19;20011;-73
2022/05/17 02:12:42;;;;;;;9.13;3.50;;;;;;;13.59;100.00;102081.19;7373060;19;20014;-73
2022/05/17 02:15:16;;;;;;;7.85;3.70;;;;;;;13.60;100.00;102087.34;7376086;19;20023;-73
2022/05/17 02:17:46;;;;;;;7.95;3.50;;;;;;;13.61;100.00;102094.41;7372282;19;20034;-74
2022/05/17 02:20:16;;;;;;;9.15;3.60;;;;;;;13.63;100.00;102090.94;7375366;19;20014;-72
2022/05/17 02:22:48;;;;;;;9.73;4.25;;;;;;;13.69;100.00;102091.06;7372144;19;20017;-72
2022/05/17 02:25:19;;;;;;;8.77;3.53;;;;;;;13.75;100.00;102087.66;7372780;19;20015;-72
2022/05/17 02:27:50;;;;;;;9.57;4.13;;;;;;;13.80;100.00;102093.91;7373892;19;20390;-72
2022/05/17 02:30:20;;;;;;;8.40;3.58;;;;;;;13.88;100.00;102080.88;7372939;19;20070;-72
2022/05/17 02:32:50;;;;;;;11.10;3.65;;;;;;;13.94;100.00;102088.91;7373572;19;20010;-73
2022/05/17 02:35:23;;;;;;;9.67;3.50;;;;;;;13.96;100.00;102082.81;7373924;19;20098;-74
2022/05/17 02:37:56;;;;;;;7.72;3.50;;;;;;;14.04;100.00;102089.13;7372744;19;20002;-72
2022/05/17 02:40:26;;;;;;;6.35;3.00;;;;;;;14.06;100.00;102083.88;7373471;19;20007;-75
2022/05/17 02:42:56;;;;;;;10.60;3.85;;;;;;;14.11;100.00;102079.56;7371812;19;19998;-72
2022/05/17 02:45:26;;;;;;;8.23;3.85;;;;;;;14.12;100.00;102081.34;7373733;19;20030;-74
2022/05/17 02:47:56;;;;;;;7.57;3.20;;;;;;;14.12;100.00;102091.00;7373258;19;20006;-73
2022/05/17 02:50:26;;;;;;;7.32;3.60;;;;;;;14.13;100.00;102090.16;7372659;19;20159;-72
2022/05/17 02:52:59;;;;;;;7.97;3.28;;;;;;;14.16;100.00;102093.75;7367616;19;20048;-73
2022/05/17 02:55:29;;;;;;;8.63;3.43;;;;;;;14.14;100.00;102087.53;7372786;19;20010;-73
2022/05/17 02:58:01;;;;;;;7.63;3.08;;;;;;;14.15;100.00;102097.22;7372371;19;20447;-73
2022/05/17 03:00:32;;;;;;;10.20;3.63;;;;;;;14.17;100.00;102102.53;7374158;19;20560;-74
2022/05/17 03:03:02;;;;;;;7.25;3.13;;;;;;;14.14;100.00;102102.47;7373660;19;20380;-73
2022/05/17 03:05:32;;;;;;;12.75;3.78;;;;;;;14.14;100.00;102102.47;7376336;19;20014;-78
2022/05/17 03:08:04;;;;;;;12.02;3.85;;;;;;;14.07;100.00;102110.28;7373977;19;20017;-78
2022/05/17 03:10:35;;;;;;;12.30;3.42;;;;;;;14.05;100.00;102104.09;7373911;19;20025;-78
2022/05/17 03:13:05;;;;;;;7.03;3.10;;;;;;;14.02;100.00;102111.06;7374002;19;20566;-77
2022/05/17 03:15:35;;;;;;;9.45;3.03;;;;;;;13.97;100.00;102110.97;7374304;19;20011;-78
2022/05/17 03:18:05;;;;;;;7.80;3.95;;;;;;;13.98;100.00;102117.13;7371396;19;20010;-77
2022/05/17 03:20:35;;;;;;;8.05;3.28;;;;;;;14.00;100.00;102128.59;7375160;19;20478;-78
2022/05/17 03:23:08;;;;;;;8.05;3.42;;;;;;;14.01;100.00;102117.19;7381308;19;20086;-79
2022/05/17 03:25:38;;;;;;;8.50;3.30;;;;;;;14.11;100.00;102118.25;7379027;19;20015;-77
2022/05/17 03:28:09;;;;;;;8.27;3.53;;;;;;;14.14;100.00;102113.91;7379645;19;20015;-77
2022/05/17 03:30:40;;;;;;;11.55;4.00;;;;;;;14.20;100.00;102118.44;7381121;19;20297;-77
2022/05/17 03:33:11;;;;;;;7.75;3.85;;;;;;;14.26;100.00;102114.16;7379283;19;20011;-77
2022/05/17 03:35:40;;;;;;;6.65;3.17;;;;;;;14.28;100.00;102122.09;7377424;19;20436;-77
2022/05/17 03:38:13;;;;;;;10.55;3.55;;;;;;;14.31;100.00;102122.16;7378851;19;20039;-77
2022/05/17 03:40:43;;;;;;;8.80;3.22;;;;;;;14.32;100.00;102135.38;7378211;19;20040;-77
2022/05/17 03:43:15;;;;;;;9.55;3.58;;;;;;;14.34;100.00;102135.41;7381826;19;20644;-77
2022/05/17 03:45:45;;;;;;;7.13;4.55;;;;;;;14.34;100.00;102132.75;7378203;19;20030;-77
2022/05/17 03:48:15;;;;;;;9.68;3.80;;;;;;;14.35;100.00;102137.19;7376197;19;20014;-76
2022/05/17 03:50:46;;;;;;;8.43;3.50;;;;;;;14.34;100.00;102141.56;7376830;19;20017;-78
2022/05/17 03:53:19;;;;;;;7.13;3.67;;;;;;;14.36;100.00;102137.22;7372787;19;20010;-77
2022/05/17 03:59:23;;;;;;;9.32;3.33;;;;;;;14.44;100.00;102142.66;7375526;19;20048;-77
2022/05/17 04:01:53;;;;;;;10.18;3.53;;;;;;;14.48;100.00;102147.13;7378799;19;20090;-76
2022/05/17 04:04:23;;;;;;;7.75;3.50;;;;;;;14.51;100.00;102146.31;7378366;19;20032;-76
2022/05/17 04:06:53;;;;;;;13.10;3.97;;;;;;;14.56;100.00;102148.13;7378068;19;20014;-76
2022/05/17 04:09:25;;;;;;;7.97;3.40;;;;;;;14.60;100.00;102147.31;7378878;19;20018;-76
2022/05/17 04:11:55;;;;;;;9.32;3.75;;;;;;;14.64;100.00;102142.97;7376499;19;20014;-76
2022/05/17 04:14:26;;;;;;;8.35;3.58;;;;;;;14.68;100.00;102145.72;7378004;19;20039;-79
2022/05/17 04:16:56;;;;;;;8.75;3.67;;;;;;;14.72;100.00;102151.94;7377863;19;20533;-77
2022/05/17 04:19:26;;;;;;;10.65;3.92;;;;;;;14.77;100.00;102150.25;7378274;19;20070;-77
2022/05/17 04:21:58;;;;;;;9.68;4.47;;;;;;;14.82;100.00;102156.50;7375329;19;20480;-77
2022/05/17 04:24:30;;;;;;;8.68;3.80;;;;;;;14.86;100.00;102149.53;7375646;19;20702;-77
2022/05/17 04:27:01;;;;;;;9.77;3.80;;;;;;;14.86;100.00;102160.09;7380021;19;20554;-77
2022/05/17 04:29:31;;;;;;;8.88;3.55;;;;;;;14.90;100.00;102160.16;7379577;19;20443;-77
2022/05/17 04:32:01;;;;;;;11.35;4.15;;;;;;;14.93;100.00;102167.25;7376963;19;20494;-77
2022/05/17 04:34:32;;;;;;;11.48;3.70;;;;;;;14.96;100.00;102162.03;7376907;19;20330;-77
2022/05/17 04:37:02;;;;;;;11.68;3.50;;;;;;;14.99;100.00;102164.72;7379634;19;20022;-78
2022/05/17 04:39:35;;;;;;;7.57;3.85;;;;;;;15.00;100.00;102162.09;7377223;19;20058;-78
2022/05/17 04:42:06;;;;;;;8.05;3.80;;;;;;;15.01;100.00;102174.44;7379204;19;20018;-77
2022/05/17 04:44:36;;;;;;;9.75;4.60;;;;;;;15.05;100.00;102170.09;7377843;19;20010;-76
2022/05/17 04:47:07;;;;;;;9.00;4.25;;;;;;;15.07;100.00;102167.47;7376869;19;20014;-77
2022/05/17 04:49:37;;;;;;;12.82;4.45;;;;;;;15.08;100.00;102169.25;7377854;19;20558;-78
2022/05/17 04:52:08;;;;;;;11.07;4.45;;;;;;;15.10;100.00;102171.06;7374040;19;20047;-78
2022/05/17 04:54:41;;;;;;;10.73;4.07;;;;;;;15.11;100.00;102167.53;7375539;19;20010;-77
2022/05/17 04:57:11;;;;;;;7.63;3.72;;;;;;;15.14;100.00;102174.63;7376443;19;20339;-78
2022/05/17 04:59:41;;;;;;;10.52;3.88;;;;;;;15.15;100.00;102179.06;7374177;19;20031;-78
2022/05/17 05:02:12;;;;;;;7.63;3.78;;;;;;;15.17;100.00;102169.41;7377439;19;20010;-77
2022/05/17 05:04:42;;;;;;;9.38;3.80;;;;;;;15.18;100.00;102174.72;7375969;19;20074;-78
2022/05/17 05:07:12;;;;;;;12.63;3.90;;;;;;;15.19;100.00;102176.47;7377583;19;20748;-77
2022/05/17 05:09:44;;;;;;;8.45;4.35;;;;;;;15.19;100.00;102176.47;7375066;19;20074;-77
2022/05/17 05:12:14;;;;;;;10.77;4.95;;;;;;;15.22;100.00;102178.28;7377556;19;20010;-77
2022/05/17 05:14:47;;;;;;;9.63;4.50;;;;;;;15.22;100.00;102181.81;7375080;19;20875;-77
2022/05/17 05:17:17;;;;;;;11.07;4.50;;;;;;;15.20;100.00;102185.31;7373174;19;20018;-77
2022/05/17 05:19:47;;;;;;;11.80;4.50;;;;;;;15.22;100.00;102180.94;7376921;19;20007;-79
2022/05/17 05:22:17;;;;;;;9.93;4.70;;;;;;;15.23;100.00;102182.72;7378863;19;20487;-77
2022/05/17 05:24:51;;;;;;;10.93;5.13;;;;;;;15.24;100.00;102182.72;7374076;19;20007;-77
2022/05/17 05:27:21;;;;;;;7.72;3.67;;;;;;;15.29;100.00;102185.44;7375231;19;20303;-78
2022/05/17 05:29:51;;;;;;;9.32;3.63;;;;;;;15.31;100.00;102197.81;7373197;19;20522;-76
2022/05/17 05:32:21;;;;;;;9.10;3.88;;;;;;;15.31;100.00;102197.81;7374687;19;20044;-74
2022/05/17 05:34:51;;;;;;;12.32;3.97;;;;;;;15.29;100.00;102193.38;7376306;19;20549;-75
2022/05/17 05:37:21;;;;;;;10.77;3.63;;;;;;;15.29;100.00;102185.44;7375092;19;20011;-73
2022/05/17 05:39:54;;;;;;;12.25;4.13;;;;;;;15.28;100.00;102191.59;7375062;19;20015;-73
2022/05/17 05:42:24;;;;;;;9.10;4.00;;;;;;;15.33;100.00;102196.09;7373857;19;20366;-73
2022/05/17 05:44:54;;;;;;;10.85;3.60;;;;;;;15.26;99.64;102188.94;7375780;19;20464;-74
2022/05/17 05:47:25;;;;;;;10.95;3.15;;;;;;;15.25;99.67;102187.16;7374457;19;20010;-73
2022/05/17 05:49:55;;;;;;;11.05;3.58;;;;;;;15.21;99.35;102187.97;7374651;19;20352;-73
2022/05/17 05:52:25;;;;;;;9.40;3.70;;;;;;;15.18;99.77;102187.03;7370607;19;20652;-73
2022/05/17 05:54:57;;;;;;;11.90;3.40;;;;;;;15.09;95.58;102187.78;7372381;19;20014;-74
2022/05/17 05:57:27;;;;;;;9.15;3.95;;;;;;;15.05;96.16;102183.31;7375306;19;20277;-75
2022/05/17 05:59:57;;;;;;;8.98;2.88;;;;;;;15.03;95.35;102185.91;7374099;19;20036;-73
2022/05/17 06:02:27;;;;;;;10.02;3.10;;;;;;;15.07;95.52;102178.94;7373079;19;20010;-74
2022/05/17 06:04:57;;;;;;;8.82;3.13;;;;;;;15.13;95.56;102180.78;7374656;19;20006;-73
2022/05/17 06:07:27;;;;;;;7.90;3.03;;;;;;;15.15;94.07;102185.22;7375026;19;20491;-73
2022/05/17 06:10:01;;;;;;;12.85;3.45;;;;;;;15.18;94.22;102189.69;7372994;19;20014;-73
2022/05/17 06:12:31;;;;;;;12.02;3.20;;;;;;;15.27;95.91;102190.72;7374099;19;20014;-74
2022/05/17 06:15:01;;;;;;;11.52;3.25;;;;;;;15.36;95.59;102198.78;7378025;19;20010;-73
2022/05/17 06:17:31;;;;;;;13.20;3.60;;;;;;;15.40;94.97;102190.91;7375536;19;20014;-75
2022/05/17 06:20:01;;;;;;;12.77;3.50;;;;;;;15.44;94.70;102192.72;7378690;19;20014;-74
2022/05/17 06:22:31;;;;;;;14.23;3.38;;;;;;;15.43;93.95;102193.59;7378395;19;20477;-75
2022/05/17 06:25:05;;;;;;;13.07;3.75;;;;;;;15.37;92.28;102200.56;7377739;19;20018;-73
2022/05/17 06:27:35;;;;;;;10.18;3.30;;;;;;;15.36;91.86;102201.41;7378120;19;20007;-74
2022/05/17 06:30:05;;;;;;;13.32;3.35;;;;;;;15.36;93.47;102196.13;7373932;19;20532;-74
2022/05/17 06:32:35;;;;;;;11.90;3.10;;;;;;;15.38;92.85;102196.16;7377116;19;20019;-76
2022/05/17 06:35:06;;;;;;;13.55;2.97;;;;;;;15.40;94.55;102198.81;7377329;19;20014;-73
2022/05/17 06:37:37;;;;;;;14.48;3.50;;;;;;;15.43;93.74;102189.19;7376102;19;20010;-74
2022/05/17 06:40:11;;;;;;;9.25;3.22;;;;;;;15.50;94.95;102190.16;7376128;19;20013;-74
2022/05/17 06:42:41;;;;;;;13.05;3.67;;;;;;;15.55;95.22;102185.84;7372950;19;20011;-74
2022/05/17 06:45:12;;;;;;;12.20;2.97;;;;;;;15.61;95.53;102191.22;7373676;19;20014;-74
2022/05/17 06:47:42;;;;;;;9.35;3.30;;;;;;;15.71;94.93;102187.81;7377216;19;20459;-74
2022/05/17 06:50:13;;;;;;;13.98;3.35;;;;;;;15.73;94.48;102180.78;7377255;19;20007;-74
2022/05/17 06:52:44;;;;;;;10.48;3.33;;;;;;;15.82;95.22;102175.63;7371041;19;20013;-74
2022/05/17 06:55:17;;;;;;;8.57;2.97;;;;;;;15.88;95.18;102175.72;7370412;19;22055;-74
2022/05/17 06:57:48;;;;;;;7.88;3.38;;;;;;;15.95;95.06;102161.69;7376076;19;20050;-74
2022/05/17 07:00:20;;;;;;;7.78;2.85;;;;;;;16.07;93.97;102170.63;7376600;19;20035;-74
2022/05/17 07:02:50;;;;;;;13.43;3.30;;;;;;;16.03;93.36;102175.00;7372416;19;20007;-74
2022/05/17 07:05:21;;;;;;;9.25;3.30;;;;;;;16.09;93.80;102184.78;7371745;19;20002;-74
2022/05/17 07:07:51;;;;;;;11.57;3.30;;;;;;;16.25;93.36;102177.03;7379564;19;20023;-74
2022/05/17 07:13:13;;;;;;;10.07;3.42;;;;;;;16.55;91.39;102186.19;7383138;19;20022;-73
2022/05/17 07:15:46;;;;;;;11.68;3.05;;;;;;;16.60;91.73;102188.00;7377057;19;20047;-73
2022/05/17 07:18:20;;;;;;;9.18;3.50;;;;;;;16.79;89.98;102196.13;7381599;19;20014;-74
2022/05/17 07:20:51;;;;;;;8.70;3.20;;;;;;;17.07;91.49;102187.53;7379394;19;20027;-73
2022/05/17 07:23:24;;;;;;;13.75;5.07;;;;;;;17.40;89.35;102196.63;7376895;19;20657;-74
2022/05/17 07:25:58;;;;;;;7.20;2.88;;;;;;;17.64;88.71;102192.34;7377209;19;20475;-74
2022/05/17 07:28:28;;;;;;;8.68;3.20;;;;;;;17.49;86.64;102196.69;7374764;19;20007;-74
2022/05/17 07:30:59;;;;;;;10.48;3.08;;;;;;;17.52;87.88;102186.09;7381655;19;20085;-74
2022/05/17 07:33:29;;;;;;;8.75;3.05;;;;;;;17.21;87.10;102199.13;7384164;19;20110;-74
2022/05/17 07:35:59;;;;;;;10.85;3.20;;;;;;;17.44;88.91;102203.72;7385049;19;20015;-74
2022/05/17 07:38:30;;;;;;;9.70;3.22;;;;;;;17.61;88.34;102199.41;7378870;19;20013;-75
2022/05/17 07:41:05;;;;;;;9.60;3.03;;;;;;;17.62;89.08;102201.19;7377162;19;20018;-73
2022/05/17 07:43:36;;;;;;;8.93;3.03;;;;;;;17.75;87.30;102203.03;7375607;19;20022;-72
2022/05/17 07:46:05;;;;;;;10.52;3.20;;;;;;;18.34;86.57;102213.03;7376463;19;20027;-73
2022/05/17 07:48:36;;;;;;;8.65;3.25;;;;;;;18.44;86.14;102209.50;7377146;19;20015;-75
2022/05/17 07:51:06;;;;;;;7.22;3.30;;;;;;;18.88;84.06;102206.03;7380001;19;20018;-74
2022/05/17 07:53:42;;;;;;;7.43;2.92;;;;;;;18.99;82.89;102209.59;7374065;19;20493;-74
2022/05/17 07:56:14;;;;;;;8.85;3.33;;;;;;;19.30;83.49;102209.59;7378060;19;20485;-74
2022/05/17 07:58:45;;;;;;;10.07;3.08;;;;;;;19.27;82.32;102211.34;7378965;19;20044;-74
2022/05/17 08:01:15;;;;;;;8.52;3.55;;;;;;;18.89;81.26;102214.00;7379239;19;20014;-74
2022/05/17 08:03:45;;;;;;;7.40;2.95;;;;;;;19.21;81.39;102208.69;7378776;19;20023;-73
2022/05/17 08:06:15;;;;;;;8.93;3.25;;;;;;;19.39;80.85;102217.56;7373943;19;20363;-74
2022/05/17 08:08:45;;;;;;;8.40;3.00;;;;;;;19.39;80.13;102215.78;7376982;19;20016;-74
2022/05/17 08:11:17;;;;;;;7.95;3.80;;;;;;;19.51;80.44;102220.19;7377843;19;20010;-74
2022/05/17 08:13:47;;;;;;;7.97;3.50;;;;;;;19.66;79.56;102217.53;7377738;19;20010;-75
2022/05/17 08:16:37;;;;;;;8.73;3.28;;;;;;;19.68;80.20;102218.41;7372469;19;20040;-74
2022/05/17 08:19:07;;;;;;;12.32;3.60;;;;;;;19.75;78.91;102216.63;7379382;19;20019;-74
2022/05/17 08:21:38;;;;;;;8.60;3.60;;;;;;;19.75;79.44;102214.84;7375568;19;20024;-74
2022/05/17 08:24:09;;;;;;;7.93;3.05;;;;;;;20.08;79.14;102207.59;7377896;19;20046;-74
2022/05/17 08:29:24;;;;;;;10.00;3.28;;;;;;;20.20;76.66;102208.44;7373810;19;20639;-74
2022/05/17 08:34:37;;;;;;;7.47;4.15;;;;;;;20.54;76.92;102203.84;7374361;19;20014;-74
2022/05/17 08:37:07;;;;;;;7.03;3.25;;;;;;;21.07;75.61;102199.88;7375301;19;20337;-74
2022/05/17 08:39:36;;;;;;;7.55;3.25;;;;;;;20.96;74.67;102200.84;7377832;19;20019;-74
2022/05/17 08:42:17;;;;;;;7.97;3.33;;;;;;;21.11;73.73;102204.28;7374627;19;20047;-73
2022/05/17 08:44:58;;;;;;;10.23;4.07;;;;;;;21.10;72.74;102197.16;7374961;19;20012;-74
2022/05/17 08:47:37;;;;;;;10.35;4.40;;;;;;;21.20;72.88;102190.84;7372577;19;20021;-73
2022/05/17 08:50:30;;;;;;;7.43;4.07;;;;;;;21.24;72.82;102197.09;7371752;19;20006;-73
2022/05/17 08:53:01;;;;;;;8.65;4.03;;;;;;;21.37;72.95;102200.53;7371991;19;20017;-73
2022/05/17 08:55:36;;;;;;;8.02;3.47;;;;;;;21.51;72.81;102201.28;7377286;19;20010;-74
2022/05/17 08:58:16;;;;;;;9.63;3.83;;;;;;;21.17;71.38;102203.34;7377019;19;20011;-74
2022/05/17 09:00:48;;;;;;;6.95;3.30;;;;;;;21.20;70.80;102212.19;7374360;19;20018;-74
2022/05/17 09:03:35;;;;;;;9.20;4.05;;;;;;;20.76;71.58;102203.69;7371512;19;21023;-74
2022/05/17 09:06:13;;;;;;;7.25;3.55;;;;;;;20.74;72.42;102200.16;7373783;19;20015;-74
2022/05/17 09:08:52;;;;;;;9.30;3.70;;;;;;;20.81;72.88;102200.06;7378100;19;20497;-76
2022/05/17 09:11:32;;;;;;;7.38;3.50;;;;;;;21.03;72.70;102194.56;7378478;19;20014;-75
2022/05/17 09:14:09;;;;;;;8.30;3.45;;;;;;;21.38;71.89;102194.28;7378410;19;20374;-75
2022/05/17 09:16:43;;;;;;;6.63;3.17;;;;;;;21.34;71.42;102193.44;7374715;19;20104;-76
2022/05/17 09:19:14;;;;;;;7.45;3.25;;;;;;;21.45;71.14;102187.97;7375358;19;20378;-75
2022/05/17 09:21:48;;;;;;;10.52;3.60;;;;;;;21.99;69.99;102189.09;7376560;19;20031;-74
2022/05/17 09:24:20;;;;;;;8.20;4.05;;;;;;;22.63;67.50;102187.38;7372112;19;20442;-76
2022/05/17 09:26:53;;;;;;;8.50;4.78;;;;;;;21.87;66.97;102184.81;7376481;19;20011;-75
2022/05/17 09:29:34;;;;;;;9.00;3.90;;;;;;;21.59;67.90;102187.84;7372093;19;20662;-76
2022/05/17 09:32:08;;;;;;;10.45;4.35;;;;;;;22.32;66.94;102193.16;7377320;19;20014;-74
2022/05/17 09:34:40;;;;;;;9.00;3.38;;;;;;;22.82;65.37;102183.53;7370554;19;20362;-74
2022/05/17 09:37:14;;;;;;;9.80;4.60;;;;;;;22.79;64.92;102191.59;7372950;19;20010;-76
2022/05/17 09:39:47;;;;;;;8.95;3.40;;;;;;;23.09;61.51;102193.75;7374944;19;20260;-77
2022/05/17 09:42:28;;;;;;;10.25;3.63;;;;;;;23.16;60.95;102190.03;7373191;19;20059;-75
2022/05/17 09:45:04;;;;;;;8.85;3.60;;;;;;;23.33;60.44;102180.81;7371993;19;20015;-75
2022/05/17 09:47:43;;;;;;;8.85;3.22;;;;;;;23.72;59.75;102184.56;7376850;19;20048;-75
2022/05/17 09:53:04;;;;;;;8.80;3.80;;;;;;;23.10;60.80;102190.16;7364375;19;20014;-75
2022/05/17 09:55:37;;;;;;;10.55;3.60;;;;;;;23.06;60.62;102188.44;7371565;19;20010;-75
2022/05/17 09:58:09;;;;;;;7.43;3.67;;;;;;;22.98;61.03;102185.00;7370080;19;20018;-76
2022/05/17 10:00:54;;;;;;;7.75;3.80;;;;;;;22.88;61.96;102177.19;7375743;19;20010;-75
2022/05/17 10:03:34;;;;;;;9.07;3.85;;;;;;;22.81;61.62;102179.09;7373040;19;20721;-75
2022/05/17 10:06:08;;;;;;;8.00;4.10;;;;;;;22.68;61.41;102181.03;7372047;19;20078;-74
2022/05/17 10:08:42;;;;;;;7.75;3.50;;;;;;;22.50;62.30;102175.97;7370061;19;20006;-76
2022/05/17 10:11:22;;;;;;;7.20;3.72;;;;;;;22.81;61.32;102165.72;7373305;19;20036;-75
2022/05/17 10:14:04;;;;;;;9.25;3.92;;;;;;;22.68;60.96;102170.34;7370888;19;20019;-76
2022/05/17 10:16:43;;;;;;;8.23;3.63;;;;;;;23.11;60.30;102165.16;7377874;19;20003;-75
2022/05/17 10:19:21;;;;;;;10.13;4.07;;;;;;;23.12;59.76;102166.03;7369868;19;20476;-75
2022/05/17 10:21:57;;;;;;;11.02;4.53;;;;;;;23.47;59.49;102157.34;7373166;19;20006;-74
2022/05/17 10:24:39;;;;;;;8.75;3.75;;;;;;;23.79;58.47;102148.72;7373197;19;20053;-74
2022/05/17 10:27:14;;;;;;;10.77;4.95;;;;;;;23.48;58.54;102148.41;7375903;19;20479;-74
2022/05/17 10:29:48;;;;;;;10.75;4.45;;;;;;;23.86;58.77;102149.47;7378594;19;20370;-74
2022/05/17 10:32:28;;;;;;;9.43;3.67;;;;;;;24.45;57.21;102150.81;7384983;19;20033;-74
2022/05/17 10:35:19;;;;;;;8.25;4.05;;;;;;;24.49;57.20;102146.25;7382862;19;20014;-74
2022/05/17 10:37:56;;;;;;;8.90;4.65;;;;;;;24.35;56.07;102141.22;7375336;19;20007;-74
2022/05/17 10:40:31;;;;;;;10.48;4.88;;;;;;;23.80;56.65;102143.31;7378813;19;20022;-74
2022/05/17 10:43:02;;;;;;;9.82;4.60;;;;;;;24.26;56.11;102134.28;7378501;19;20566;-75
2022/05/17 10:45:36;;;;;;;16.13;5.55;;;;;;;24.57;56.20;102133.56;7381806;19;20045;-75
2022/05/17 10:48:20;;;;;;;11.35;5.30;;;;;;;24.70;55.87;102132.34;7381653;19;20014;-74
2022/05/17 10:50:57;;;;;;;12.98;6.28;;;;;;;24.75;55.71;102122.38;7378452;19;20017;-76
2022/05/17 10:53:48;;;;;;;13.30;6.30;;;;;;;24.74;55.85;102123.28;7375931;19;20017;-75
2022/05/17 10:56:30;;;;;;;12.27;6.18;;;;;;;24.79;55.18;102124.06;7380728;19;20011;-75
2022/05/17 10:59:10;;;;;;;16.02;6.97;;;;;;;24.63;55.15;102122.66;7381369;19;20011;-76
2022/05/17 11:01:49;;;;;;;15.52;6.63;;;;;;;24.63;56.45;102120.88;7382702;19;20018;-75
2022/05/17 11:05:01;;;;;;;14.82;7.57;;;;;;;24.90;55.47;102121.09;7383126;19;20031;-75
2022/05/17 11:07:43;;;;;;;10.98;6.00;;;;;;;24.84;55.43;102123.94;7383866;19;20017;-76
2022/05/17 11:10:24;;;;;;;12.77;6.97;;;;;;;25.19;54.34;102123.88;7380583;19;20375;-76
2022/05/17 11:13:02;;;;;;;12.57;6.00;;;;;;;25.51;53.83;102125.69;7382606;19;20021;-75
2022/05/17 11:15:36;;;;;;;13.98;6.95;;;;;;;25.22;53.84;102118.44;7382860;19;20014;-76
2022/05/17 11:18:17;;;;;;;14.40;7.50;;;;;;;25.12;53.81;102111.56;7382821;19;20007;-76
2022/05/17 11:20:57;;;;;;;15.20;7.57;;;;;;;25.08;54.13;102099.13;7381489;19;20003;-76
2022/05/17 11:23:50;;;;;;;12.82;7.50;;;;;;;25.06;55.12;102088.44;7379578;19;20022;-76
2022/05/17 11:26:42;;;;;;;16.48;7.93;;;;;;;25.01;55.94;102093.06;7380614;19;20026;-76
2022/05/17 11:29:34;;;;;;;13.35;7.68;;;;;;;25.14;54.69;102088.22;7379613;19;20010;-76
2022/05/17 11:32:24;;;;;;;12.75;7.50;;;;;;;25.37;53.87;102087.59;7381018;19;20018;-74
2022/05/17 11:34:56;;;;;;;13.55;7.20;;;;;;;25.55;52.82;102073.63;7381246;19;20470;-75
2022/05/17 11:37:51;;;;;;;15.90;7.93;;;;;;;25.03;52.57;102071.53;7380560;19;20018;-74
2022/05/17 11:40:51;;;;;;;13.73;7.18;;;;;;;24.92;53.47;102066.47;7379875;19;20024;-75
2022/05/17 11:46:07;;;;;;;17.05;7.55;;;;;;;24.89;53.13;102076.41;7377235;19;20015;-76
2022/05/17 11:48:48;;;;;;;13.27;7.38;;;;;;;25.14;52.58;102076.59;7380067;19;20127;-75
2022/05/17 11:51:17;;;;;;;13.38;7.57;;;;;;;24.99;52.77;102081.47;7377441;19;20036;-74
2022/05/17 11:53:52;;;;;;;16.90;8.10;;;;;;;25.29;52.70;102066.31;7375420;19;20010;-74
2022/05/17 11:56:36;;;;;;;15.05;8.20;;;;;;;25.21;52.33;102070.16;7383086;19;20035;-75
2022/05/17 11:59:35;;;;;;;13.55;7.93;;;;;;;25.06;52.51;102068.78;7381602;19;20447;-75
2022/05/17 12:02:09;;;;;;;12.65;7.38;;;;;;;25.00;53.18;102056.41;7378926;19;20140;-75
2022/05/17 12:04:44;;;;;;;15.88;8.45;;;;;;;25.38;51.50;102049.94;7377291;19;20010;-75
2022/05/17 12:07:29;;;;;;;15.38;8.13;;;;;;;25.14;52.34;102049.75;7379653;19;20018;-76
2022/05/17 12:10:13;;;;;;;14.98;8.10;;;;;;;25.34;51.90;102047.41;7380309;19;20026;-75